Time;durP1;ratioP1;P1;durP2;ratioP2;P2;SDS_P1;SDS_P2;PMS_P1;PMS_P2;Temp;Humidity;BMP_temperature;BMP_pressure;BME280_temperature;BME280_humidity;BME280_pressure;Samples;Min_cycle;Max_cycle;Signal;HPM_P1;HPM_P2
2023/08/22 00:00:30;;;;;;;6.72;2.70;;;;;;;-146.25;100.00;52060.00;2088507;28;30234;-64
2023/08/22 00:01:33;;;;;;;4.88;3.00;;;;;;;-146.25;100.00;52041.75;2088030;28;32743;-64
2023/08/22 00:02:34;;;;;;;4.05;2.70;;;;;;;-146.25;100.00;52080.28;2088569;28;38274;-64
2023/08/22 00:03:36;;;;;;;6.85;2.90;;;;;;;-146.25;100.00;52051.91;2088990;28;20870;-64
2023/08/22 00:04:39;;;;;;;6.22;2.97;;;;;;;-146.25;100.00;52039.75;2088576;28;38445;-64
2023/08/22 00:05:41;;;;;;;3.47;3.10;;;;;;;-146.25;100.00;52062.03;2088183;28;34941;-64
2023/08/22 00:06:42;;;;;;;7.57;3.40;;;;;;;-146.25;100.00;52060.00;2088344;28;35317;-64
2023/08/22 00:07:44;;;;;;;6.38;2.55;;;;;;;-146.25;100.00;52072.19;2088494;28;36564;-64
2023/08/22 00:08:46;;;;;;;6.25;3.70;;;;;;;-146.25;100.00;52053.94;2088640;28;34451;-64
2023/08/22 00:09:48;;;;;;;7.10;3.30;;;;;;;-146.25;100.00;52047.84;2088288;28;33450;-64
2023/08/22 00:10:50;;;;;;;8.48;4.13;;;;;;;-146.25;100.00;52078.25;2088174;28;38150;-65
2023/08/22 00:11:51;;;;;;;11.00;3.38;;;;;;;-146.25;100.00;52043.78;2087762;28;35642;-64
2023/08/22 00:12:53;;;;;;;5.32;3.10;;;;;;;-146.25;100.00;52072.19;2089182;28;20033;-64
2023/08/22 00:13:55;;;;;;;7.00;3.42;;;;;;;-146.25;100.00;52070.16;2088440;28;32855;-64
2023/08/22 00:14:57;;;;;;;6.40;3.22;;;;;;;-146.25;100.00;52047.84;2088815;28;20042;-64
2023/08/22 00:16:03;;;;;;;5.07;4.05;;;;;;;-146.25;100.00;52072.19;2088445;28;36654;-64
2023/08/22 00:17:10;;;;;;;6.68;3.85;;;;;;;-146.25;100.00;52051.91;2088061;28;35624;-64
2023/08/22 00:18:14;;;;;;;6.70;3.72;;;;;;;-146.25;100.00;52080.28;2088355;28;34319;-65
2023/08/22 00:19:16;;;;;;;6.82;3.92;;;;;;;-146.25;100.00;52047.84;2087872;28;36350;-64
2023/08/22 00:20:19;;;;;;;6.82;3.53;;;;;;;-146.25;100.00;52060.00;2088537;28;20905;-64
2023/08/22 00:21:21;;;;;;;7.25;3.80;;;;;;;-146.25;100.00;52082.31;2087543;28;37934;-64
2023/08/22 00:22:23;;;;;;;7.40;4.10;;;;;;;-146.25;100.00;52082.31;2088315;28;34868;-64
2023/08/22 00:23:24;;;;;;;6.65;3.47;;;;;;;-146.25;100.00;52086.38;2088677;28;34121;-65
2023/08/22 00:24:26;;;;;;;5.80;3.45;;;;;;;-146.25;100.00;52068.13;2088291;28;37585;-64
2023/08/22 00:25:28;;;;;;;5.55;3.83;;;;;;;-146.25;100.00;52064.06;2088167;28;37505;-65
2023/08/22 00:26:29;;;;;;;6.13;3.20;;;;;;;-146.25;100.00;52062.03;2088496;28;34423;-64
2023/08/22 00:27:31;;;;;;;4.40;3.15;;;;;;;-146.25;100.00;52088.41;2088552;28;28694;-64
2023/08/22 00:28:33;;;;;;;5.57;3.72;;;;;;;-146.25;100.00;52082.31;2088761;28;25420;-64
2023/08/22 00:29:37;;;;;;;5.18;3.17;;;;;;;-146.25;100.00;52049.88;2088705;28;23020;-64
2023/08/22 00:30:40;;;;;;;8.70;3.60;;;;;;;-146.25;100.00;52096.50;2088690;28;22560;-64
2023/08/22 00:31:42;;;;;;;5.78;3.67;;;;;;;-146.25;100.00;52037.72;2087293;28;35829;-64
2023/08/22 00:32:44;;;;;;;8.60;3.60;;;;;;;-146.25;100.00;52092.44;2087451;28;33750;-65
2023/08/22 00:33:46;;;;;;;6.63;3.83;;;;;;;-146.25;100.00;52088.41;2088377;28;20172;-64
2023/08/22 00:34:50;;;;;;;6.30;3.78;;;;;;;-146.25;100.00;52098.53;2087371;28;35262;-64
2023/08/22 00:35:52;;;;;;;6.88;4.18;;;;;;;-146.25;100.00;52051.91;2088705;28;20041;-64
2023/08/22 00:36:54;;;;;;;5.78;4.60;;;;;;;-146.25;100.00;52043.78;2089131;28;21074;-65
2023/08/22 00:37:56;;;;;;;8.40;5.32;;;;;;;-146.25;100.00;52082.31;2088485;28;30211;-64
2023/08/22 00:38:58;;;;;;;6.47;4.53;;;;;;;-146.25;100.00;52060.00;2088701;28;26373;-64
2023/08/22 00:40:00;;;;;;;7.82;4.50;;;;;;;-146.25;100.00;52080.28;2088153;28;20874;-65
2023/08/22 00:41:02;;;;;;;5.55;4.20;;;;;;;-146.25;100.00;52070.16;2079632;28;20042;-64
2023/08/22 00:42:03;;;;;;;6.88;4.75;;;;;;;-146.25;100.00;52082.31;2087939;28;27578;-64
2023/08/22 00:43:06;;;;;;;9.43;4.85;;;;;;;-146.25;100.00;52060.00;2088758;28;20044;-65
2023/08/22 00:44:08;;;;;;;9.23;4.80;;;;;;;-146.25;100.00;52074.22;2088926;28;28663;-65
2023/08/22 00:45:10;;;;;;;8.38;4.22;;;;;;;-146.25;100.00;52088.41;2088118;28;28967;-64
2023/08/22 00:46:12;;;;;;;10.10;5.10;;;;;;;-146.25;100.00;52041.75;2088583;28;20045;-64
2023/08/22 00:47:18;;;;;;;7.70;3.83;;;;;;;-146.25;100.00;52074.22;2089168;28;20033;-64
2023/08/22 00:48:20;;;;;;;9.52;4.13;;;;;;;-146.25;100.00;52055.97;2087564;28;33281;-65
2023/08/22 00:49:23;;;;;;;5.65;5.03;;;;;;;-146.25;100.00;52068.13;2088262;28;20049;-65
2023/08/22 00:50:24;;;;;;;7.38;4.80;;;;;;;-146.25;100.00;52084.34;2096102;28;27768;-64
2023/08/22 00:51:26;;;;;;;5.97;4.63;;;;;;;-146.25;100.00;52084.34;2087254;28;29692;-64
2023/08/22 00:52:28;;;;;;;6.75;4.50;;;;;;;-146.25;100.00;52045.81;2088084;28;20688;-64
2023/08/22 00:53:33;;;;;;;5.20;4.65;;;;;;;-146.25;100.00;52100.56;2088548;28;28716;-65
2023/08/22 00:54:35;;;;;;;6.47;4.70;;;;;;;-146.25;100.00;52060.00;2079688;28;20046;-64
2023/08/22 00:55:38;;;;;;;7.15;4.88;;;;;;;-146.25;100.00;52106.66;2080238;28;20886;-64
2023/08/22 00:56:40;;;;;;;7.70;4.35;;;;;;;-146.25;100.00;52082.31;2088882;28;20120;-64
2023/08/22 00:57:42;;;;;;;9.73;4.53;;;;;;;-146.25;100.00;52037.72;2079431;28;20046;-64
2023/08/22 00:58:45;;;;;;;6.18;4.00;;;;;;;-146.25;100.00;52045.81;2079917;28;27208;-64
2023/08/22 00:59:47;;;;;;;8.18;4.43;;;;;;;-146.25;100.00;52066.09;2090217;28;27723;-64
2023/08/22 01:00:53;;;;;;;7.25;4.65;;;;;;;-146.25;100.00;52084.34;2096237;28;20238;-63
2023/08/22 01:01:55;;;;;;;5.68;4.88;;;;;;;-146.25;100.00;52068.13;2087689;28;23434;-64
2023/08/22 01:02:57;;;;;;;6.18;4.28;;;;;;;-146.25;100.00;52104.63;2087649;28;23015;-64
2023/08/22 01:03:59;;;;;;;7.43;5.32;;;;;;;-146.25;100.00;52076.22;2087894;28;20111;-63
2023/08/22 01:05:03;;;;;;;11.23;5.45;;;;;;;-146.25;100.00;52086.38;2079103;28;29882;-64
2023/08/22 01:06:37;;;;;;;9.05;5.18;;;;;;;-146.25;100.00;52072.19;2087822;28;29548;-64
2023/08/22 01:07:57;;;;;;;8.57;4.97;;;;;;;-146.25;100.00;52066.09;2087426;28;34706;-64
2023/08/22 01:09:23;;;;;;;5.22;4.72;;;;;;;-146.25;100.00;52055.97;2082366;28;20100;-63
2023/08/22 01:10:35;;;;;;;8.20;5.22;;;;;;;-146.25;100.00;52084.34;2075603;28;20056;-64
2023/08/22 01:11:44;;;;;;;8.82;5.22;;;;;;;-146.25;100.00;52080.28;2076939;28;20046;-64
2023/08/22 01:12:58;;;;;;;8.15;5.50;;;;;;;-146.25;100.00;52051.91;2088163;28;20037;-64
2023/08/22 01:14:07;;;;;;;5.90;5.20;;;;;;;-146.25;100.00;52084.34;2088656;28;24003;-63
2023/08/22 01:15:24;;;;;;;8.10;5.40;;;;;;;-146.25;100.00;52062.03;2087741;28;27550;-64
2023/08/22 01:16:26;;;;;;;6.63;4.97;;;;;;;-146.25;100.00;52066.09;2090937;28;29296;-64
2023/08/22 01:17:29;;;;;;;5.05;4.55;;;;;;;-146.25;100.00;52064.06;2094289;28;28407;-63
2023/08/22 01:18:33;;;;;;;6.25;4.50;;;;;;;-146.25;100.00;52082.31;2079531;28;20805;-63
2023/08/22 01:19:38;;;;;;;6.53;4.53;;;;;;;-146.25;100.00;52060.00;2080757;28;20030;-63
2023/08/22 01:20:42;;;;;;;5.88;4.22;;;;;;;-146.25;100.00;52062.03;2087852;28;21784;-63
2023/08/22 01:21:53;;;;;;;5.85;4.32;;;;;;;-146.25;100.00;52084.34;2080117;28;27132;-63
2023/08/22 01:22:56;;;;;;;5.97;4.32;;;;;;;-146.25;100.00;52076.22;2088931;28;24743;-63
2023/08/22 01:24:02;;;;;;;7.43;4.93;;;;;;;-146.25;100.00;52055.97;2096064;28;21059;-63
2023/08/22 01:25:05;;;;;;;8.93;4.30;;;;;;;-146.25;100.00;52082.31;2087854;28;20168;-63
2023/08/22 01:26:07;;;;;;;8.80;4.72;;;;;;;-146.25;100.00;52076.22;2087845;28;20037;-63
2023/08/22 01:27:14;;;;;;;5.28;3.70;;;;;;;-146.25;100.00;52049.88;2088085;28;30970;-63
2023/08/22 01:28:40;;;;;;;7.63;4.55;;;;;;;-146.25;100.00;52120.84;2087662;28;29703;-63
2023/08/22 01:29:56;;;;;;;6.13;4.47;;;;;;;-146.25;100.00;52096.50;2081072;28;36145;-63
2023/08/22 01:31:29;;;;;;;6.75;4.82;;;;;;;-146.25;100.00;52068.13;2081107;28;29256;-63
2023/08/22 01:32:38;;;;;;;7.85;5.32;;;;;;;-146.25;100.00;52076.22;2081890;28;28906;-63
2023/08/22 01:33:53;;;;;;;8.95;5.68;;;;;;;-146.25;100.00;52064.06;2079324;28;30673;-63
2023/08/22 01:35:05;;;;;;;6.25;5.65;;;;;;;-146.25;100.00;52098.53;2074725;28;26991;-63
2023/08/22 01:36:10;;;;;;;8.25;5.30;;;;;;;-146.25;100.00;52043.78;2074500;28;20891;-63
2023/08/22 01:37:14;;;;;;;8.60;4.95;;;;;;;-146.25;100.00;52068.13;2080156;28;20041;-63
2023/08/22 01:38:21;;;;;;;8.77;5.43;;;;;;;-146.25;100.00;52064.06;2087021;28;37405;-63
2023/08/22 01:39:25;;;;;;;5.53;5.03;;;;;;;-146.25;100.00;52084.34;2086826;28;31274;-63
2023/08/22 01:40:29;;;;;;;6.53;5.43;;;;;;;-146.25;100.00;52076.22;2079707;28;25451;-63
2023/08/22 01:41:31;;;;;;;6.60;4.93;;;;;;;-146.25;100.00;52076.22;2079138;28;31652;-63
2023/08/22 01:42:35;;;;;;;8.50;5.20;;;;;;;-146.25;100.00;52047.84;2079450;28;20139;-63
2023/08/22 01:43:42;;;;;;;9.15;6.28;;;;;;;-146.25;100.00;52084.34;2079827;28;20116;-63
2023/08/22 01:44:44;;;;;;;9.73;5.50;;;;;;;-146.25;100.00;52076.22;2079511;28;31648;-63
2023/08/22 01:45:48;;;;;;;7.65;4.75;;;;;;;-146.25;100.00;52096.50;2071700;28;32030;-63
2023/08/22 01:46:50;;;;;;;7.20;5.20;;;;;;;-146.25;100.00;52104.63;2079344;28;26667;-63
2023/08/22 01:47:54;;;;;;;8.80;5.75;;;;;;;-146.25;100.00;52058.00;2079669;28;28591;-63
2023/08/22 01:48:56;;;;;;;8.23;5.28;;;;;;;-146.25;100.00;52049.88;2079646;28;29625;-64
2023/08/22 01:49:58;;;;;;;6.85;6.15;;;;;;;-146.25;100.00;52070.16;2079155;28;31883;-64
2023/08/22 01:51:00;;;;;;;9.00;5.65;;;;;;;-146.25;100.00;52068.13;2079304;28;29755;-63
2023/08/22 01:52:06;;;;;;;9.93;6.30;;;;;;;-146.25;100.00;52102.59;2087292;28;21299;-63
2023/08/22 01:53:08;;;;;;;9.82;6.38;;;;;;;-146.25;100.00;52055.97;2079918;28;21073;-64
2023/08/22 01:54:10;;;;;;;8.88;5.85;;;;;;;-146.25;100.00;52096.50;2078481;28;32679;-65
2023/08/22 01:55:14;;;;;;;9.88;6.72;;;;;;;-146.25;100.00;52064.06;2071229;28;20050;-63
2023/08/22 01:56:16;;;;;;;11.27;6.47;;;;;;;-146.25;100.00;52070.16;2079435;28;25664;-63
2023/08/22 01:57:17;;;;;;;8.80;6.10;;;;;;;-146.25;100.00;52110.69;2079672;28;21010;-65
2023/08/22 01:58:19;;;;;;;7.55;5.78;;;;;;;-146.25;100.00;52055.97;2071723;28;20997;-65
2023/08/22 01:59:21;;;;;;;8.95;6.50;;;;;;;-146.25;100.00;52072.19;2071312;28;20781;-63
2023/08/22 02:00:23;;;;;;;11.43;6.72;;;;;;;-146.25;100.00;52100.56;2077661;28;20157;-63
2023/08/22 02:01:25;;;;;;;10.07;5.85;;;;;;;-146.25;100.00;52064.06;2087417;28;35552;-63
2023/08/22 02:02:27;;;;;;;10.40;6.45;;;;;;;-146.25;100.00;52070.16;2087410;28;20090;-62
2023/08/22 02:03:28;;;;;;;12.85;7.57;;;;;;;-146.25;100.00;52096.50;2079617;28;30537;-63
2023/08/22 02:04:31;;;;;;;9.52;6.03;;;;;;;-146.25;100.00;52045.81;2079225;28;20890;-63
2023/08/22 02:05:33;;;;;;;8.65;7.03;;;;;;;-146.25;100.00;52074.22;2078741;28;27992;-64
2023/08/22 02:06:36;;;;;;;9.38;6.65;;;;;;;-146.25;100.00;52088.41;2087593;28;20049;-62
2023/08/22 02:07:38;;;;;;;9.90;7.32;;;;;;;-146.25;100.00;52072.19;2088101;28;25075;-64
2023/08/22 02:08:41;;;;;;;9.15;6.78;;;;;;;-146.25;100.00;52041.75;2095873;28;21003;-63
2023/08/22 02:09:43;;;;;;;11.25;7.28;;;;;;;-146.25;100.00;52088.41;2087181;28;30811;-63
2023/08/22 02:10:45;;;;;;;11.88;6.82;;;;;;;-146.25;100.00;52068.13;2087696;28;20120;-63
2023/08/22 02:11:46;;;;;;;8.32;5.85;;;;;;;-146.25;100.00;52084.34;2095415;28;30576;-65
2023/08/22 02:12:48;;;;;;;8.07;6.30;;;;;;;-146.25;100.00;52106.66;2086934;28;28389;-63
2023/08/22 02:13:52;;;;;;;7.60;6.32;;;;;;;-146.25;100.00;52080.28;2079529;28;20057;-63
2023/08/22 02:14:55;;;;;;;7.30;6.28;;;;;;;-146.25;100.00;52051.91;2087950;28;20053;-63
2023/08/22 02:16:00;;;;;;;7.03;6.32;;;;;;;-146.25;100.00;52053.94;2096590;28;30212;-65
2023/08/22 02:17:02;;;;;;;10.05;6.90;;;;;;;-146.25;100.00;52053.94;2096646;28;21061;-63
2023/08/22 02:18:04;;;;;;;9.20;6.80;;;;;;;-146.25;100.00;52047.84;2089009;28;28684;-64
2023/08/22 02:19:06;;;;;;;8.85;7.70;;;;;;;-146.25;100.00;52074.22;2089360;28;26167;-65
2023/08/22 02:20:09;;;;;;;8.75;6.45;;;;;;;-146.25;100.00;52055.97;2090040;28;30461;-65
2023/08/22 02:21:12;;;;;;;11.40;6.40;;;;;;;-146.25;100.00;52047.84;2079847;28;29445;-64
2023/08/22 02:22:14;;;;;;;10.13;7.22;;;;;;;-146.25;100.00;52031.63;2072996;28;29514;-65
2023/08/22 02:23:18;;;;;;;11.95;8.10;;;;;;;-146.25;100.00;52066.09;2081545;28;21362;-64
2023/08/22 02:24:20;;;;;;;9.27;6.57;;;;;;;-146.25;100.00;52072.19;2080893;28;33600;-65
2023/08/22 02:25:21;;;;;;;11.45;7.55;;;;;;;-146.25;100.00;52043.78;2088616;28;24205;-65
2023/08/22 02:26:23;;;;;;;9.45;6.72;;;;;;;-146.25;100.00;52076.22;2096792;28;23486;-64
2023/08/22 02:27:27;;;;;;;12.52;7.97;;;;;;;-146.25;100.00;52116.78;2088772;28;20057;-65
2023/08/22 02:28:34;;;;;;;8.40;7.53;;;;;;;-146.25;100.00;52055.97;2088797;28;30796;-65
2023/08/22 02:29:35;;;;;;;8.15;7.32;;;;;;;-146.25;100.00;52043.78;2089135;28;27841;-64
2023/08/22 02:30:37;;;;;;;12.93;7.72;;;;;;;-146.25;100.00;52100.56;2089423;28;27909;-65
2023/08/22 02:31:39;;;;;;;10.65;7.60;;;;;;;-146.25;100.00;52062.03;2088181;28;36362;-65
2023/08/22 02:32:41;;;;;;;11.05;8.32;;;;;;;-146.25;100.00;52055.97;2088758;28;26700;-63
2023/08/22 02:33:43;;;;;;;11.77;8.50;;;;;;;-146.25;100.00;52090.44;2089069;28;29537;-63
2023/08/22 02:34:44;;;;;;;9.50;7.68;;;;;;;-146.25;100.00;52084.34;2089481;28;26937;-64
2023/08/22 02:35:46;;;;;;;9.63;7.30;;;;;;;-146.25;100.00;52068.13;2088992;28;21061;-63
2023/08/22 02:36:50;;;;;;;8.68;7.32;;;;;;;-146.25;100.00;52041.75;2080917;28;20116;-63
2023/08/22 02:37:52;;;;;;;13.80;7.03;;;;;;;-146.25;100.00;52072.19;2088408;28;31584;-64
2023/08/22 02:38:54;;;;;;;8.20;5.82;;;;;;;-146.25;100.00;52082.31;2089894;28;20044;-64
2023/08/22 02:39:56;;;;;;;13.75;8.27;;;;;;;-146.25;100.00;52080.28;2088761;28;20068;-64
2023/08/22 02:40:57;;;;;;;11.45;7.68;;;;;;;-146.25;100.00;52074.22;2089081;28;21044;-64
2023/08/22 02:41:59;;;;;;;11.95;7.97;;;;;;;-146.25;100.00;52120.84;2090122;28;20037;-64
2023/08/22 02:43:03;;;;;;;12.68;7.78;;;;;;;-146.25;100.00;52060.00;2089583;28;20910;-64
2023/08/22 02:44:06;;;;;;;13.90;7.35;;;;;;;-146.25;100.00;52043.78;2089816;28;21056;-64
2023/08/22 02:45:15;;;;;;;9.48;6.47;;;;;;;-146.25;100.00;52025.53;2088901;28;25070;-64
2023/08/22 02:46:16;;;;;;;8.43;7.05;;;;;;;-146.25;100.00;52082.31;2081084;28;27303;-63
2023/08/22 02:47:19;;;;;;;12.60;6.70;;;;;;;-146.25;100.00;52072.19;2088536;28;20049;-63
2023/08/22 02:48:21;;;;;;;9.25;7.07;;;;;;;-146.25;100.00;52076.22;2079620;28;27623;-63
2023/08/22 02:49:22;;;;;;;7.40;6.13;;;;;;;-146.25;100.00;52102.59;2080701;28;20045;-63
2023/08/22 02:50:26;;;;;;;8.85;6.97;;;;;;;-146.25;100.00;52090.44;2089598;28;20115;-64
2023/08/22 02:51:29;;;;;;;11.05;6.78;;;;;;;-146.25;100.00;52062.03;2089761;28;20893;-63
2023/08/22 02:52:32;;;;;;;9.82;6.53;;;;;;;-146.25;100.00;52055.97;2089475;28;20049;-63
2023/08/22 02:53:33;;;;;;;9.30;6.30;;;;;;;-146.25;100.00;52080.28;2089075;28;30761;-63
2023/08/22 02:54:35;;;;;;;7.95;5.57;;;;;;;-146.25;100.00;52094.47;2089172;28;21841;-64
2023/08/22 02:55:37;;;;;;;11.32;6.47;;;;;;;-146.25;100.00;52076.22;2088320;28;20942;-63
2023/08/22 02:56:41;;;;;;;10.38;7.72;;;;;;;-146.25;100.00;52100.56;2080751;28;20045;-63
2023/08/22 02:57:44;;;;;;;10.32;6.60;;;;;;;-146.25;100.00;52047.84;2089279;28;20034;-64
2023/08/22 02:58:48;;;;;;;10.65;6.45;;;;;;;-146.25;100.00;52094.47;2088497;28;20597;-64
2023/08/22 02:59:50;;;;;;;10.73;7.07;;;;;;;-146.25;100.00;52064.06;2080930;28;20879;-63
2023/08/22 03:00:52;;;;;;;9.77;7.22;;;;;;;-146.25;100.00;52060.00;2080095;28;20963;-63
2023/08/22 03:01:56;;;;;;;10.43;7.18;;;;;;;-146.25;100.00;52053.94;2089103;28;20068;-63
2023/08/22 03:02:58;;;;;;;8.40;6.57;;;;;;;-146.25;100.00;52068.13;2080386;28;20058;-64
2023/08/22 03:04:00;;;;;;;10.07;6.68;;;;;;;-146.25;100.00;52074.22;2080794;28;20120;-64
2023/08/22 03:05:04;;;;;;;8.43;5.85;;;;;;;-146.25;100.00;52086.38;2089236;28;20099;-64
2023/08/22 03:06:06;;;;;;;8.15;6.45;;;;;;;-146.25;100.00;52082.31;2088723;28;20049;-63
2023/08/22 03:07:09;;;;;;;10.77;6.22;;;;;;;-146.25;100.00;52080.28;2080397;28;22457;-63
2023/08/22 03:08:11;;;;;;;9.57;5.93;;;;;;;-146.25;100.00;52080.28;2081033;28;20045;-64
2023/08/22 03:09:13;;;;;;;9.05;6.13;;;;;;;-146.25;100.00;52092.44;2088351;28;20739;-63
2023/08/22 03:10:15;;;;;;;9.10;6.28;;;;;;;-146.25;100.00;52072.19;2088876;28;20176;-63
2023/08/22 03:11:19;;;;;;;7.72;6.05;;;;;;;-146.25;100.00;52104.63;2088864;28;20049;-63
2023/08/22 03:12:22;;;;;;;7.53;6.43;;;;;;;-146.25;100.00;52060.00;2096844;28;23701;-65
2023/08/22 03:13:30;;;;;;;10.77;5.95;;;;;;;-146.25;100.00;52055.97;2097302;28;20087;-63
2023/08/22 03:14:32;;;;;;;6.65;5.55;;;;;;;-146.25;100.00;52066.09;2088740;28;20037;-64
2023/08/22 03:15:34;;;;;;;9.45;6.07;;;;;;;-146.25;100.00;52060.00;2088279;28;21605;-65
2023/08/22 03:16:38;;;;;;;9.73;6.50;;;;;;;-146.25;100.00;52086.38;2089543;28;20173;-65
2023/08/22 03:17:39;;;;;;;7.80;5.72;;;;;;;-146.25;100.00;52051.91;2088397;28;20052;-63
2023/08/22 03:18:44;;;;;;;6.95;5.68;;;;;;;-146.25;100.00;52068.13;2089053;28;20890;-63
2023/08/22 03:19:47;;;;;;;10.13;6.10;;;;;;;-146.25;100.00;52029.59;2088669;28;20080;-63
2023/08/22 03:20:49;;;;;;;10.05;5.93;;;;;;;-146.25;100.00;52080.28;2080881;28;20046;-64
2023/08/22 03:21:53;;;;;;;10.00;6.28;;;;;;;-146.25;100.00;52096.50;2080195;28;20164;-63
2023/08/22 03:22:57;;;;;;;8.05;6.32;;;;;;;-146.25;100.00;52076.22;2088569;28;27221;-65
2023/08/22 03:24:02;;;;;;;6.75;6.00;;;;;;;-146.25;100.00;52078.25;2089192;28;20590;-65
2023/08/22 03:25:08;;;;;;;8.93;6.70;;;;;;;-146.25;100.00;52108.66;2080787;28;21637;-64
2023/08/22 03:26:13;;;;;;;7.63;5.90;;;;;;;-146.25;100.00;52108.66;2080930;28;20941;-65
2023/08/22 03:27:15;;;;;;;6.57;5.75;;;;;;;-146.25;100.00;52053.94;2080991;28;20042;-65
2023/08/22 03:28:20;;;;;;;9.82;6.68;;;;;;;-146.25;100.00;52068.13;2080298;28;20911;-65
2023/08/22 03:29:24;;;;;;;9.73;6.55;;;;;;;-146.25;100.00;52051.91;2088911;28;20037;-65
2023/08/22 03:30:26;;;;;;;7.68;6.30;;;;;;;-146.25;100.00;52068.13;2088544;28;20164;-65
2023/08/22 03:31:28;;;;;;;8.32;6.00;;;;;;;-146.25;100.00;52068.13;2080088;28;25451;-64
2023/08/22 03:32:33;;;;;;;9.00;6.22;;;;;;;-146.25;100.00;52060.00;2088745;28;20533;-65
2023/08/22 03:33:36;;;;;;;8.45;5.85;;;;;;;-146.25;100.00;52080.28;2088774;28;20037;-65
2023/08/22 03:34:41;;;;;;;6.10;5.53;;;;;;;-146.25;100.00;52062.03;2088513;28;20041;-65
2023/08/22 03:35:43;;;;;;;8.20;5.72;;;;;;;-146.25;100.00;52084.34;2088537;28;20045;-64
2023/08/22 03:36:45;;;;;;;7.85;5.55;;;;;;;-146.25;100.00;52094.47;2097094;28;20080;-64
2023/08/22 03:37:48;;;;;;;10.15;6.93;;;;;;;-146.25;100.00;52090.44;2088394;28;20154;-63
2023/08/22 03:38:51;;;;;;;12.80;7.00;;;;;;;-146.25;100.00;52051.91;2080349;28;20914;-63
2023/08/22 03:39:54;;;;;;;8.55;6.90;;;;;;;-146.25;100.00;52098.53;2088267;28;20045;-63
2023/08/22 03:40:56;;;;;;;9.70;6.53;;;;;;;-146.25;100.00;52088.41;2088595;28;20838;-64
2023/08/22 03:42:01;;;;;;;9.77;6.35;;;;;;;-146.25;100.00;52076.22;2088145;28;20095;-65
2023/08/22 03:43:03;;;;;;;10.43;6.40;;;;;;;-146.25;100.00;52100.56;2089021;28;20864;-63
2023/08/22 03:44:05;;;;;;;8.45;6.18;;;;;;;-146.25;100.00;52104.63;2088498;28;20896;-63
2023/08/22 03:45:09;;;;;;;10.57;6.80;;;;;;;-146.25;100.00;52080.28;2080116;28;20046;-64
2023/08/22 03:46:11;;;;;;;10.73;7.18;;;;;;;-146.25;100.00;52086.38;2080470;28;20830;-63
2023/08/22 03:47:19;;;;;;;9.45;7.00;;;;;;;-146.25;100.00;52108.66;2088303;28;28101;-63
2023/08/22 03:48:22;;;;;;;11.02;6.95;;;;;;;-146.25;100.00;52064.06;2088118;28;20078;-64
2023/08/22 03:49:24;;;;;;;7.68;5.75;;;;;;;-146.25;100.00;52076.22;2080788;28;20049;-63
2023/08/22 03:50:28;;;;;;;9.30;6.40;;;;;;;-146.25;100.00;52100.56;2080123;28;20054;-64
2023/08/22 03:51:33;;;;;;;9.52;6.40;;;;;;;-146.25;100.00;52062.03;2088427;28;20064;-63
2023/08/22 03:52:35;;;;;;;10.20;7.15;;;;;;;-146.25;100.00;52047.84;2088430;28;20937;-63
2023/08/22 03:53:37;;;;;;;10.98;6.68;;;;;;;-146.25;100.00;52064.06;2088565;28;21012;-63
2023/08/22 03:54:42;;;;;;;11.55;7.32;;;;;;;-146.25;100.00;52076.22;2080238;28;20169;-63
2023/08/22 03:55:44;;;;;;;11.68;6.30;;;;;;;-146.25;100.00;52072.19;2080646;28;20152;-63
2023/08/22 03:56:46;;;;;;;7.28;6.00;;;;;;;-146.25;100.00;52068.13;2088541;28;20038;-63
2023/08/22 03:57:49;;;;;;;8.68;7.35;;;;;;;-146.25;100.00;52096.50;2080116;28;20109;-63
2023/08/22 03:58:51;;;;;;;11.00;7.63;;;;;;;-146.25;100.00;52070.16;2088563;28;20459;-63
2023/08/22 03:59:52;;;;;;;9.02;6.55;;;;;;;-146.25;100.00;52092.44;2087352;28;20057;-63
2023/08/22 04:00:59;;;;;;;10.65;7.93;;;;;;;-146.25;100.00;52076.22;2087605;28;29888;-63
2023/08/22 04:02:01;;;;;;;11.75;6.82;;;;;;;-146.25;100.00;52086.38;2088358;28;20044;-63
2023/08/22 04:03:03;;;;;;;10.90;7.93;;;;;;;-146.25;100.00;52068.13;2079890;28;20923;-63
2023/08/22 04:04:05;;;;;;;12.00;7.22;;;;;;;-146.25;100.00;52098.53;2080353;28;20034;-63
2023/08/22 04:05:07;;;;;;;8.25;6.50;;;;;;;-146.25;100.00;52094.47;2096632;28;20029;-63
2023/08/22 04:06:09;;;;;;;9.90;6.82;;;;;;;-146.25;100.00;52112.72;2096202;28;20136;-63
2023/08/22 04:07:11;;;;;;;8.50;6.75;;;;;;;-146.25;100.00;52072.19;2088189;28;20783;-63
2023/08/22 04:08:15;;;;;;;9.93;6.72;;;;;;;-146.25;100.00;52088.41;2088547;28;23017;-63
2023/08/22 04:09:17;;;;;;;7.13;6.13;;;;;;;-146.25;100.00;52045.81;2088624;28;25449;-63
2023/08/22 04:10:19;;;;;;;9.30;6.60;;;;;;;-146.25;100.00;52104.63;2088413;28;20045;-63
2023/08/22 04:11:21;;;;;;;11.55;7.32;;;;;;;-146.25;100.00;52114.75;2087770;28;32839;-63
2023/08/22 04:12:24;;;;;;;13.13;7.90;;;;;;;-146.25;100.00;52084.34;2088491;28;20262;-63
2023/08/22 04:13:25;;;;;;;12.05;8.13;;;;;;;-146.25;100.00;52090.44;2088088;28;28871;-64
2023/08/22 04:14:29;;;;;;;10.85;7.43;;;;;;;-146.25;100.00;52102.59;2088500;28;33978;-63
2023/08/22 04:15:30;;;;;;;11.05;6.32;;;;;;;-146.25;100.00;52058.00;2088808;28;20030;-62
2023/08/22 04:16:33;;;;;;;8.25;6.43;;;;;;;-146.25;100.00;52120.84;2087858;28;20937;-63
2023/08/22 04:17:35;;;;;;;8.55;7.13;;;;;;;-146.25;100.00;52124.91;2088376;28;25755;-63
2023/08/22 04:18:38;;;;;;;9.73;6.55;;;;;;;-146.25;100.00;52080.28;2088054;28;20041;-63
2023/08/22 04:19:39;;;;;;;11.05;7.05;;;;;;;-146.25;100.00;52082.31;2080072;28;20906;-63
2023/08/22 04:20:43;;;;;;;6.75;5.93;;;;;;;-146.25;100.00;52090.44;2080027;28;20181;-63
2023/08/22 04:21:44;;;;;;;9.68;6.82;;;;;;;-146.25;100.00;52080.28;2080168;28;20102;-63
2023/08/22 04:22:46;;;;;;;9.23;6.90;;;;;;;-146.25;100.00;52110.69;2088525;28;20232;-63
2023/08/22 04:23:48;;;;;;;8.95;7.25;;;;;;;-146.25;100.00;52094.47;2087916;28;20037;-63
2023/08/22 04:24:50;;;;;;;9.35;7.00;;;;;;;-146.25;100.00;52137.06;2080102;28;20249;-63
2023/08/22 04:25:54;;;;;;;10.40;7.07;;;;;;;-146.25;100.00;52100.56;2088513;28;20042;-63
2023/08/22 04:26:56;;;;;;;9.60;7.03;;;;;;;-146.25;100.00;52137.06;2088120;28;20116;-63
2023/08/22 04:27:57;;;;;;;13.05;6.95;;;;;;;-146.25;100.00;52068.13;2080181;28;20042;-63
2023/08/22 04:28:59;;;;;;;9.40;7.28;;;;;;;-146.25;100.00;52092.44;2079815;28;21880;-62
2023/08/22 04:30:01;;;;;;;10.77;8.38;;;;;;;-146.25;100.00;52076.22;2087781;28;32315;-62
2023/08/22 04:31:04;;;;;;;11.23;7.45;;;;;;;-146.25;100.00;52092.44;2079426;28;20881;-63
2023/08/22 04:32:06;;;;;;;10.38;7.22;;;;;;;-146.25;100.00;52051.91;2072269;28;20049;-63
2023/08/22 04:33:08;;;;;;;9.05;7.35;;;;;;;-146.25;100.00;52076.22;2079811;28;20168;-63
2023/08/22 04:34:10;;;;;;;10.50;7.38;;;;;;;-146.25;100.00;52112.72;2088647;28;20099;-63
2023/08/22 04:35:18;;;;;;;9.70;7.70;;;;;;;-146.25;100.00;52053.94;2087646;28;20171;-63
2023/08/22 04:36:23;;;;;;;11.52;7.00;;;;;;;-146.25;100.00;52096.50;2080107;28;20046;-63
2023/08/22 04:37:25;;;;;;;7.88;6.22;;;;;;;-146.25;100.00;52108.66;2080005;28;20030;-63
2023/08/22 04:38:29;;;;;;;10.93;7.68;;;;;;;-146.25;100.00;52100.56;2079095;28;20148;-63
2023/08/22 04:39:36;;;;;;;8.70;6.68;;;;;;;-146.25;100.00;52100.56;2080968;28;20139;-63
2023/08/22 04:40:58;;;;;;;7.22;6.50;;;;;;;-146.25;100.00;52108.66;2088364;28;20092;-63
2023/08/22 04:42:18;;;;;;;9.45;7.60;;;;;;;-146.25;100.00;52102.59;2088343;28;20816;-63
2023/08/22 04:43:26;;;;;;;11.98;7.32;;;;;;;-146.25;100.00;52084.34;2088607;28;20957;-63
2023/08/22 04:44:28;;;;;;;11.82;7.32;;;;;;;-146.25;100.00;52098.53;2079575;28;20170;-64
2023/08/22 04:45:32;;;;;;;15.15;8.07;;;;;;;-146.25;100.00;52086.38;2087930;28;21417;-64
2023/08/22 04:46:33;;;;;;;8.48;6.90;;;;;;;-146.25;100.00;52092.44;2087971;28;21176;-64
2023/08/22 04:47:35;;;;;;;9.70;7.03;;;;;;;-146.25;100.00;52104.63;2080062;28;20053;-63
2023/08/22 04:48:40;;;;;;;10.77;7.70;;;;;;;-146.25;100.00;52106.66;2079711;28;20030;-63